28. Mai 2022

Uhrzeit Code Wetter Temp. Sichtweite Wolkendecke Wind METAR/SPECI
6:50 pm
V
54 °F 6¼ mi+ - 290° 290° 14 kt METAR EDDW 281650Z AUTO 29014KT 9999 FEW042 12/05 Q1017 TEMPO 30015G25KT
6:20 pm
V
55 °F 6¼ mi+ - 310° 310° 17 kt METAR EDDW 281620Z AUTO 31017KT CAVOK 13/04 Q1016 TEMPO 30015G25KT
5:50 pm
V
55 °F 6¼ mi+ - 310° 310° 14 kt METAR EDDW 281550Z AUTO 31014KT 280V340 9999 FEW036 13/05 Q1017 TEMPO 30020G30KT
5:20 pm
V
57 °F 6¼ mi+ - 300° 300° 19 kt METAR EDDW 281520Z AUTO 30019KT 9999 FEW036 14/05 Q1017 TEMPO 30020G30KT
4:50 pm
V
55 °F 6¼ mi+ - 300° 300° 16 kt METAR EDDW 281450Z AUTO 30016KT 9999 FEW035 SCT045 13/06 Q1017 TEMPO 30020G30KT
4:20 pm
V
55 °F 6¼ mi+ 4.900 ft 300° 300° 18 kt METAR EDDW 281420Z AUTO 30018KT 9999 SCT041 BKN049 13/05 Q1017 TEMPO 30020G30KT
3:50 pm
V
55 °F 6¼ mi+ - 300° 300° 19 kt METAR EDDW 281350Z AUTO 30019KT CAVOK 13/04 Q1017 TEMPO 30020G30KT
3:20 pm
V
57 °F 6¼ mi+ - 300° 300° 20 - 32 kt METAR EDDW 281320Z AUTO 30020G32KT 9999 FEW044 14/04 Q1017 NOSIG
2:50 pm
V
57 °F 6¼ mi+ - 310° 310° 20 kt METAR EDDW 281250Z AUTO 31020KT 9999 FEW045 14/04 Q1017 TEMPO 30020G30KT
2:20 pm
V
55 °F 6¼ mi+ 4.600 ft 300° 300° 20 kt METAR EDDW 281220Z AUTO 30020KT 9999 BKN046 13/04 Q1017 TEMPO 30020G30KT
1:50 pm
V
57 °F 6¼ mi+ - 300° 300° 19 kt METAR EDDW 281150Z AUTO 30019KT 9999 FEW039 14/05 Q1017 TEMPO 30020G30KT
1:20 pm
V
57 °F 6¼ mi+ - 300° 300° 14 kt METAR EDDW 281120Z AUTO 30014KT 9999 FEW027 SCT049 14/07 Q1017 TEMPO 30020G30KT
12:50 pm
V
52 °F 6¼ mi+ 4.100 ft 330° 330° 13 kt METAR EDDW 281050Z AUTO 33013KT 9999 -RADZ FEW022 BKN041 11/08 Q1017 TEMPO 32020G30KT
12:20 pm
V
55 °F 6¼ mi+ - 300° 300° 16 kt METAR EDDW 281020Z AUTO 30016KT 9999 VCSH FEW033 FEW///TCU 13/06 Q1017 TEMPO 31020G30KT SHRA
11:50 am
V
57 °F 6¼ mi+ - 300° 300° 18 kt METAR EDDW 280950Z AUTO 30018KT 270V330 9999 SCT035 SCT048 14/07 Q1017 TEMPO 30020G30KT
11:20 am
V
55 °F 6¼ mi+ - 300° 300° 14 - 24 kt METAR EDDW 280920Z AUTO 30014G24KT 9999 FEW031 SCT048 13/07 Q1017 TEMPO 30020G30KT
10:50 am
V
54 °F 6¼ mi+ 4.300 ft 310° 310° 21 - 33 kt METAR EDDW 280850Z AUTO 31021G33KT 9999 FEW029 BKN043 12/06 Q1017 NOSIG
10:20 am
V
57 °F 6¼ mi+ - 310° 310° 18 kt METAR EDDW 280820Z AUTO 31018KT 280V340 9999 FEW024 SCT046 14/08 Q1016 TEMPO 30020G30KT
9:50 am
V
52 °F 6¼ mi+ 4.800 ft 300° 300° 18 kt METAR EDDW 280750Z AUTO 30018KT 9999 -SHRA FEW022 BKN048 FEW///CB 11/08 Q1017 NOSIG
9:20 am
V
54 °F 6¼ mi+ - 300° 300° 15 kt METAR EDDW 280720Z AUTO 30015KT 9999 FEW023 SCT049 12/08 Q1016 TEMPO 30015G30KT
8:50 am
M
52 °F 6¼ mi+ 2.200 ft 300° 300° 15 kt METAR EDDW 280650Z AUTO 30015KT 9999 FEW018 BKN022 11/07 Q1016 TEMPO 30015G25KT
8:20 am
V
52 °F 6¼ mi+ - 300° 300° 15 kt METAR EDDW 280620Z AUTO 30015KT 9999 FEW020 11/07 Q1016 BECMG 30015G25KT
7:50 am
V
50 °F 6¼ mi+ 4.800 ft 290° 290° 14 kt METAR EDDW 280550Z AUTO 29014KT 9999 FEW019 BKN048 10/07 Q1016 BECMG 30015G25KT
7:20 am
V
48 °F 5 mi 4.100 ft 310° 310° 13 kt METAR EDDW 280520Z AUTO 31013KT 8000 -SHRA SCT019 OVC041 FEW///CB 09/07 Q1016 RESHRA
6:50 am
V
48 °F 6¼ mi+ - 280° 280° 11 kt METAR EDDW 280450Z AUTO 28011KT 9999 FEW027 09/06 Q1016 TEMPO 28015G25KT
6:20 am
M
48 °F 6¼ mi+ 2.900 ft 280° 280° 13 kt METAR EDDW 280420Z AUTO 28013KT 9999 SCT024 BKN029 09/06 Q1015 TEMPO 28015G25KT
5:50 am
V
48 °F 6¼ mi+ - 280° 280° 13 kt METAR EDDW 280350Z AUTO 28013KT CAVOK 09/06 Q1015 TEMPO 28015G25KT SHRA SCT020CB
5:20 am
V
46 °F 6¼ mi+ 4.700 ft 270° 270° 12 kt METAR EDDW 280320Z AUTO 27012KT 9999 VCSH BKN047 FEW///CB 08/06 Q1015
4:50 am
V
46 °F 6¼ mi+ - 270° 270° 11 kt METAR EDDW 280250Z AUTO 27011KT CAVOK 08/06 Q1015
4:20 am
V
46 °F 6¼ mi+ - 270° 270° 12 kt METAR EDDW 280220Z AUTO 27012KT 9999 FEW028 08/06 Q1015
3:50 am
V
46 °F 6¼ mi+ - 280° 280° 12 kt METAR EDDW 280150Z AUTO 28012KT CAVOK 08/06 Q1015
3:20 am
V
46 °F 6¼ mi+ - 270° 270° 10 kt METAR EDDW 280120Z AUTO 27010KT CAVOK 08/07 Q1016
2:50 am
V
46 °F 6¼ mi+ - 260° 260° 8 kt METAR EDDW 280050Z AUTO 26008KT 9999 FEW027 08/06 Q1016
2:20 am
V
46 °F 6¼ mi+ - 280° 280° 8 kt METAR EDDW 280020Z AUTO 28008KT 9999 FEW031 SCT039 08/06 Q1016
1:50 am
V
48 °F 6¼ mi+ - 280° 280° 10 kt METAR EDDW 272350Z AUTO 28010KT 9999 FEW021 SCT047 09/06 Q1016 RESHRA
1:20 am
V
48 °F 6¼ mi+ - 280° 280° 13 kt METAR EDDW 272320Z AUTO 28013KT 9999 SHRA SCT023 FEW///CB 09/07 Q1016
12:50 am
V
50 °F 6¼ mi+ - 280° 280° 12 kt METAR EDDW 272250Z AUTO 28012KT 9999 -SHRA SCT026 FEW///TCU 10/08 Q1016
12:20 am
V
50 °F 6¼ mi+ - 260° 260° 10 kt METAR EDDW 272220Z AUTO 26010KT 9999 FEW026 10/07 Q1017

27. Mai 2022

Uhrzeit Code Wetter Temp. Sichtweite Wolkendecke Wind METAR/SPECI
11:50 pm
V
50 °F 6¼ mi+ - 270° 270° 10 kt METAR EDDW 272150Z AUTO 27010KT 9999 FEW027 10/08 Q1017
11:20 pm
V
48 °F 6¼ mi+ 3.300 ft 270° 270° 8 kt METAR EDDW 272120Z AUTO 27008KT 9999 SCT028 BKN033 09/07 Q1017 TEMPO 28015G25KT
10:50 pm
V
48 °F 6¼ mi+ 3.200 ft 300° 300° 10 kt METAR EDDW 272050Z AUTO 30010KT 9999 FEW025 BKN032 BKN041 09/07 Q1017 RETSRA TEMPO 28020G30KT SHRA SCT020CB
10:20 pm
V
50 °F 5 mi 4.300 ft 280° 280° 17 kt METAR EDDW 272020Z AUTO 28017KT 8000 SHRA FEW024 BKN043 FEW///CB 10/08 Q1017 BECMG NSW
9:50 pm
V
52 °F 6¼ mi+ - 260° 260° 13 kt METAR EDDW 271950Z AUTO 26013KT 9999 FEW031 SCT040 11/07 Q1017 TEMPO 28020G30KT TSRA SCT020CB
9:20 pm
V
52 °F 6¼ mi+ - 270° 270° 14 kt METAR EDDW 271920Z AUTO 27014KT 9999 FEW034 11/07 Q1017 TEMPO 28020G30KT TSRA SCT020CB
8:50 pm
V
52 °F 6¼ mi+ - 270° 270° 15 kt METAR EDDW 271850Z AUTO 27015KT CAVOK 11/07 Q1017 TEMPO 28020G30KT SHRA SCT020CB
8:20 pm
V
52 °F 6¼ mi+ - 270° 270° 13 kt METAR EDDW 271820Z AUTO 27013KT CAVOK 11/08 Q1017 TEMPO 28020G30KT
7:50 pm
V
52 °F 6¼ mi+ 4.700 ft 290° 290° 17 kt METAR EDDW 271750Z AUTO 29017KT 9999 -SHRA FEW033 BKN047 FEW///CB 11/08 Q1017 RESHRA TEMPO 28020G30KT SHRA SCT020CB
7:20 pm
V
52 °F 6¼ mi+ - 290° 290° 16 kt METAR EDDW 271720Z AUTO 29016KT 9999 -SHRA FEW033 FEW///CB 11/08 Q1017 RESHRA TEMPO 28020G35KT SHRA SCT020CB
6:50 pm
V
54 °F 6¼ mi+ - 300° 300° 16 kt METAR EDDW 271650Z AUTO 30016KT 9999 FEW049 12/08 Q1017 TEMPO 28020G35KT SHRA SCT020CB
6:20 pm
V
52 °F 6¼ mi+ - 310° 310° 20 kt METAR EDDW 271620Z AUTO 31020KT 9999 -RA SCT046 11/08 Q1017 TEMPO 28020G35KT SHRA SCT025CB
5:50 pm
V
52 °F 5⅝ mi - 300° 300° 18 - 29 kt METAR EDDW 271550Z AUTO 30018G29KT 9000 -SHRA SCT038 FEW///CB 11/08 Q1017 RESHRA TEMPO 28020G35KT SHRA SCT025TCU
5:20 pm
V
59 °F 6¼ mi+ - 270° 270° 20 kt METAR EDDW 271520Z AUTO 27020KT 9999 SCT042 15/05 Q1017 TEMPO 28020G35KT SHRA SCT025TCU
4:50 pm
V
59 °F 6¼ mi+ - 280° 280° 19 kt METAR EDDW 271450Z AUTO 28019KT 9999 -SHRA SCT044 FEW///CB 15/06 Q1017 TEMPO 28020G35KT SHRA SCT025TCU
4:20 pm
V
59 °F 6¼ mi+ - 290° 290° 21 - 31 kt METAR EDDW 271420Z AUTO 29021G31KT 9999 SCT045 15/06 Q1017 TEMPO SHRA SCT025TCU
3:50 pm
V
59 °F 6¼ mi+ - 280° 280° 22 - 32 kt METAR EDDW 271350Z AUTO 28022G32KT 9999 SCT042 15/06 Q1017 TEMPO SHRA SCT025TCU
3:20 pm
V
61 °F 6¼ mi+ - 280° 280° 24 kt METAR EDDW 271320Z AUTO 28024KT 9999 VCSH FEW046 FEW///CB 16/06 Q1017 TEMPO 28020G35KT SHRA SCT025TCU
2:50 pm
V
57 °F 6¼ mi+ - 290° 290° 21 kt METAR EDDW 271250Z AUTO 29021KT 9999 FEW024 14/06 Q1017 TEMPO 28020G35KT SHRA SCT025TCU
2:20 pm
V
59 °F 6¼ mi+ - 290° 290° 21 kt METAR EDDW 271220Z AUTO 29021KT 9999 FEW047 15/05 Q1017 TEMPO 28020G35KT SHRA SCT025TCU
1:50 pm
V
61 °F 6¼ mi+ - 280° 280° 24 - 35 kt METAR EDDW 271150Z AUTO 28024G35KT 9999 FEW048 16/06 Q1016 TEMPO SHRA SCT025TCU
1:20 pm
V
61 °F 6¼ mi+ - 280° 280° 19 kt METAR EDDW 271120Z AUTO 28019KT 9999 SCT045 16/06 Q1016 TEMPO 28020G35KT
12:50 pm
V
61 °F 6¼ mi+ - 280° 280° 19 kt METAR EDDW 271050Z AUTO 28019KT 9999 FEW045 16/06 Q1016 TEMPO 28020G35KT
12:20 pm
V
57 °F 6¼ mi+ - 290° 290° 20 - 30 kt METAR EDDW 271020Z AUTO 29020G30KT 9999 SCT048 14/05 Q1017 NOSIG
11:50 am
V
57 °F 6¼ mi+ - 270° 270° 21 kt METAR EDDW 270950Z AUTO 27021KT 9999 SCT045 14/05 Q1016 TEMPO 28020G35KT
11:20 am
V
59 °F 6¼ mi+ - 280° 280° 19 kt METAR EDDW 270920Z AUTO 28019KT 9999 FEW044 15/05 Q1016 TEMPO 28020G35KT
10:50 am
V
57 °F 6¼ mi+ - 270° 270° 20 kt METAR EDDW 270850Z AUTO 27020KT 9999 SCT044 14/05 Q1016 TEMPO 28020G35KT
10:20 am
V
59 °F 6¼ mi+ - 270° 270° 19 - 32 kt METAR EDDW 270820Z AUTO 27019G32KT 240V300 9999 FEW040 15/06 Q1016 NOSIG
9:50 am
V
59 °F 6¼ mi+ - 270° 270° 14 kt METAR EDDW 270750Z AUTO 27014KT 250V310 9999 SCT038 SCT047 15/07 Q1016 BECMG 28020G30KT
9:20 am
V
57 °F 6¼ mi+ - 280° 280° 14 kt METAR EDDW 270720Z AUTO 28014KT 9999 FEW032 SCT040 14/07 Q1016 BECMG 28020G30KT
8:50 am
V
55 °F 6¼ mi+ 3.000 ft 270° 270° 11 kt METAR EDDW 270650Z AUTO 27011KT 9999 BKN030 BKN040 13/08 Q1016 BECMG 28015G25KT
8:20 am
V
55 °F 6¼ mi+ - 280° 280° 12 kt METAR EDDW 270620Z AUTO 28012KT 9999 FEW031 SCT038 13/08 Q1016 BECMG 28015G25KT
7:50 am
V
55 °F 6¼ mi+ - 280° 280° 11 kt METAR EDDW 270550Z AUTO 28011KT 9999 FEW025 13/09 Q1016 BECMG 28015G25KT
7:20 am
V
55 °F 6¼ mi+ - 260° 260° 8 kt METAR EDDW 270520Z AUTO 26008KT CAVOK 13/09 Q1016 BECMG 27015G25KT
6:50 am
V
54 °F 6¼ mi+ - 270° 270° 9 kt METAR EDDW 270450Z AUTO 27009KT CAVOK 12/09 Q1016 BECMG 27015G25KT
6:20 am
V
54 °F 6¼ mi+ - 270° 270° 7 kt METAR EDDW 270420Z AUTO 27007KT CAVOK 12/09 Q1016 BECMG 27015G25KT
5:50 am
V
52 °F 6¼ mi+ - 270° 270° 7 kt METAR EDDW 270350Z AUTO 27007KT CAVOK 11/09 Q1015 BECMG 28015G25KT
5:20 am
V
52 °F 6¼ mi+ - 280° 280° 7 kt METAR EDDW 270320Z AUTO 28007KT CAVOK 11/09 Q1015
4:50 am
V
54 °F 6¼ mi+ - 300° 300° 8 kt METAR EDDW 270250Z AUTO 30008KT CAVOK 12/10 Q1015
4:20 am
V
55 °F 6¼ mi+ - 290° 290° 9 kt METAR EDDW 270220Z AUTO 29009KT CAVOK 13/11 Q1015
3:50 am
V
55 °F 6¼ mi+ - 280° 280° 9 kt METAR EDDW 270150Z AUTO 28009KT 9999 SCT022 13/12 Q1015
3:20 am
V
57 °F 5⅝ mi 4.800 ft 280° 280° 12 kt METAR EDDW 270120Z AUTO 28012KT 9000 -RA SCT009 BKN048 14/12 Q1015 RERA
2:50 am
V
57 °F 6¼ mi+ 4.300 ft 270° 270° 8 kt METAR EDDW 270050Z AUTO 27008KT 9999 RA SCT015 BKN043 14/13 Q1015
2:20 am
M
57 °F 6¼ mi+ 2.000 ft 260° 260° 9 kt METAR EDDW 270020Z AUTO 26009KT 9999 -SHRA BKN020 FEW///CB 14/13 Q1015
1:50 am
M
57 °F 6¼ mi+ 1.700 ft 260° 260° 11 kt METAR EDDW 262350Z AUTO 26011KT 9999 BKN017 BKN029 14/13 Q1015
1:20 am
V
57 °F 6¼ mi+ 3.800 ft 260° 260° 11 kt METAR EDDW 262320Z AUTO 26011KT 9999 FEW012 BKN038 14/13 Q1015
12:50 am
M
57 °F 6¼ mi+ 2.400 ft 260° 260° 12 kt METAR EDDW 262250Z AUTO 26012KT 9999 SCT014 BKN024 BKN049 14/13 Q1015
12:20 am
M
57 °F 5⅝ mi 1.500 ft 250° 250° 13 kt METAR EDDW 262220Z AUTO 25013KT 9000 -RADZ SCT010 BKN015 14/13 Q1016

26. Mai 2022

Uhrzeit Code Wetter Temp. Sichtweite Wolkendecke Wind METAR/SPECI
11:50 pm
M
57 °F 6¼ mi+ 1.100 ft 240° 240° 12 kt METAR EDDW 262150Z AUTO 24012KT 9999 BKN011 OVC017 14/12 Q1016
11:20 pm
M
57 °F 5⅝ mi 2.300 ft 240° 240° 13 kt METAR EDDW 262120Z AUTO 24013KT 9000 -RADZ FEW012 SCT018 BKN023 14/12 Q1016
10:50 pm
M
57 °F 6¼ mi+ 2.400 ft 260° 260° 11 kt METAR EDDW 262050Z AUTO 26011KT 9999 -RADZ BKN024 14/11 Q1016 NOSIG
10:20 pm
V
57 °F 6¼ mi+ - 240° 240° 8 kt METAR EDDW 262020Z AUTO 24008KT 9999 -DZ FEW032 14/12 Q1016 NOSIG
9:50 pm
V
57 °F 6¼ mi+ 3.300 ft 220° 220° 8 kt METAR EDDW 261950Z AUTO 22008KT 9999 BKN033 OVC047 14/12 Q1016 NOSIG
9:20 pm
V
55 °F 6¼ mi+ 3.600 ft 230° 230° 5 kt METAR EDDW 261920Z AUTO 23005KT 200V260 9999 -DZ FEW021 BKN036 OVC048 13/12 Q1016 NOSIG
8:50 pm
I
55 °F 2¼ mi 3.300 ft 260° 260° 9 kt METAR EDDW 261850Z AUTO 26009KT 3600 -RADZ BR FEW007 BKN033 13/12 Q1017 REDZ TEMPO 6000 BKN008
8:20 pm
I
55 °F 1¾ mi 3.600 ft 260° 260° 8 kt METAR EDDW 261820Z AUTO 26008KT 2800 -RADZ BR FEW021 OVC036 13/12 Q1017 BECMG 8000
7:50 pm
M
57 °F 3¾ mi 3.000 ft 230° 230° 8 kt METAR EDDW 261750Z AUTO 23008KT 6000 -RADZ BKN030 BKN042 14/12 Q1017
7:20 pm
V
61 °F 6¼ mi+ 4.700 ft 250° 250° 13 kt METAR EDDW 261720Z AUTO 25013KT 9999 -RADZ FEW019 OVC047 16/11 Q1017 NOSIG
6:50 pm
V
63 °F 6¼ mi+ - 280° 280° 12 kt METAR EDDW 261650Z AUTO 28012KT 9999 FEW039 17/09 Q1017 TEMPO 30015G25KT
6:20 pm
V
64 °F 6¼ mi+ - 280° 280° 11 kt METAR EDDW 261620Z AUTO 28011KT 9999 FEW048 18/10 Q1017 TEMPO 30015G25KT
5:50 pm
V
63 °F 6¼ mi+ - 280° 280° 13 kt METAR EDDW 261550Z AUTO 28013KT 9999 FEW039 17/09 Q1017 TEMPO 30015G25KT
5:20 pm
V
63 °F 6¼ mi+ - 260° 260° 11 kt METAR EDDW 261520Z AUTO 26011KT 9999 FEW043 17/10 Q1017
4:50 pm
V
63 °F 6¼ mi+ - 260° 260° 13 kt METAR EDDW 261450Z AUTO 26013KT 9999 FEW042 17/10 Q1017 NOSIG
Ältere Daten

Laden Sie unsere App herunter

Einfacher Zugriff auf das gesamte Flugwetter auf Ihrem Mobiltelefon und Tablet.
Mit vielen Funktionen, die auf der Website nicht verfügbar sind, wie Offline-Unterstützung und eine persönliche Flughafenliste.

Wir und Dritte verfolgen dein Internetverhalten auf unserer Website mit Cookies. Wenn du fortfährst, gehen wir davon aus, dass du mit unserer Cookie-Richtlinie einverstanden bist. Mehr erfahren